sensor_id;sensor_type;location;lat;lon;timestamp;temperature;humidity
32366;DHT22;18837;46.832;16.838;2023-07-30T00:01:12;24.90;80.10
32366;DHT22;18837;46.832;16.838;2023-07-30T00:03:38;24.90;80.20
32366;DHT22;18837;46.832;16.838;2023-07-30T00:06:04;24.80;80.20
32366;DHT22;18837;46.832;16.838;2023-07-30T00:08:30;24.80;80.20
32366;DHT22;18837;46.832;16.838;2023-07-30T00:10:59;24.80;80.40
32366;DHT22;18837;46.832;16.838;2023-07-30T00:13:25;24.80;80.20
32366;DHT22;18837;46.832;16.838;2023-07-30T00:15:51;24.80;80.50
32366;DHT22;18837;46.832;16.838;2023-07-30T00:18:17;24.80;80.40
32366;DHT22;18837;46.832;16.838;2023-07-30T00:20:43;24.80;80.20
32366;DHT22;18837;46.832;16.838;2023-07-30T00:23:09;24.80;80.20
32366;DHT22;18837;46.832;16.838;2023-07-30T00:25:35;24.80;80.30
32366;DHT22;18837;46.832;16.838;2023-07-30T00:28:01;24.70;80.10
32366;DHT22;18837;46.832;16.838;2023-07-30T00:30:26;24.70;80.10
32366;DHT22;18837;46.832;16.838;2023-07-30T00:32:52;24.70;80.30
32366;DHT22;18837;46.832;16.838;2023-07-30T00:35:18;24.70;80.40
32366;DHT22;18837;46.832;16.838;2023-07-30T00:37:44;24.70;80.20
32366;DHT22;18837;46.832;16.838;2023-07-30T00:40:10;24.70;80.30
32366;DHT22;18837;46.832;16.838;2023-07-30T00:42:37;24.60;80.60
32366;DHT22;18837;46.832;16.838;2023-07-30T00:45:03;24.70;80.50
32366;DHT22;18837;46.832;16.838;2023-07-30T00:47:30;24.70;80.40
32366;DHT22;18837;46.832;16.838;2023-07-30T00:49:56;24.60;80.30
32366;DHT22;18837;46.832;16.838;2023-07-30T00:52:23;24.60;80.30
32366;DHT22;18837;46.832;16.838;2023-07-30T00:54:50;24.60;80.70
32366;DHT22;18837;46.832;16.838;2023-07-30T00:57:18;24.60;80.40
32366;DHT22;18837;46.832;16.838;2023-07-30T00:59:45;24.60;80.50
32366;DHT22;18837;46.832;16.838;2023-07-30T01:02:12;24.70;80.60
32366;DHT22;18837;46.832;16.838;2023-07-30T01:04:38;24.50;80.50
32366;DHT22;18837;46.832;16.838;2023-07-30T01:07:05;24.60;80.80
32366;DHT22;18837;46.832;16.838;2023-07-30T01:09:32;24.60;80.90
32366;DHT22;18837;46.832;16.838;2023-07-30T01:11:58;24.50;80.60
32366;DHT22;18837;46.832;16.838;2023-07-30T01:14:25;24.50;80.70
32366;DHT22;18837;46.832;16.838;2023-07-30T01:16:52;24.50;80.80
32366;DHT22;18837;46.832;16.838;2023-07-30T01:19:18;24.50;80.60
32366;DHT22;18837;46.832;16.838;2023-07-30T01:21:44;24.50;80.70
32366;DHT22;18837;46.832;16.838;2023-07-30T01:24:10;24.50;80.80
32366;DHT22;18837;46.832;16.838;2023-07-30T01:26:43;24.40;80.70
32366;DHT22;18837;46.832;16.838;2023-07-30T01:29:21;24.50;80.80
32366;DHT22;18837;46.832;16.838;2023-07-30T01:31:54;24.40;80.70
32366;DHT22;18837;46.832;16.838;2023-07-30T01:34:23;24.40;81.10
32366;DHT22;18837;46.832;16.838;2023-07-30T01:36:49;24.40;81.10
32366;DHT22;18837;46.832;16.838;2023-07-30T01:39:16;24.40;81.10
32366;DHT22;18837;46.832;16.838;2023-07-30T01:41:43;24.40;81.30
32366;DHT22;18837;46.832;16.838;2023-07-30T01:44:09;24.40;81.10
32366;DHT22;18837;46.832;16.838;2023-07-30T01:46:34;24.40;81.10
32366;DHT22;18837;46.832;16.838;2023-07-30T01:49:00;24.30;81.10
32366;DHT22;18837;46.832;16.838;2023-07-30T01:51:26;24.30;81.10
32366;DHT22;18837;46.832;16.838;2023-07-30T01:53:51;24.30;81.10
32366;DHT22;18837;46.832;16.838;2023-07-30T01:56:17;24.30;81.10
32366;DHT22;18837;46.832;16.838;2023-07-30T01:58:43;24.30;81.20
32366;DHT22;18837;46.832;16.838;2023-07-30T02:01:09;24.30;81.30
32366;DHT22;18837;46.832;16.838;2023-07-30T02:03:35;24.30;81.20
32366;DHT22;18837;46.832;16.838;2023-07-30T02:06:00;24.30;81.20
32366;DHT22;18837;46.832;16.838;2023-07-30T02:08:26;24.30;81.40
32366;DHT22;18837;46.832;16.838;2023-07-30T02:10:57;24.30;81.30
32366;DHT22;18837;46.832;16.838;2023-07-30T02:13:23;24.20;81.30
32366;DHT22;18837;46.832;16.838;2023-07-30T02:15:49;24.30;81.40
32366;DHT22;18837;46.832;16.838;2023-07-30T02:18:15;24.30;81.50
32366;DHT22;18837;46.832;16.838;2023-07-30T02:20:40;24.30;81.50
32366;DHT22;18837;46.832;16.838;2023-07-30T02:23:07;24.20;81.30
32366;DHT22;18837;46.832;16.838;2023-07-30T02:25:34;24.20;81.40
32366;DHT22;18837;46.832;16.838;2023-07-30T02:28:00;24.20;81.40
32366;DHT22;18837;46.832;16.838;2023-07-30T02:30:27;24.20;81.40
32366;DHT22;18837;46.832;16.838;2023-07-30T02:32:52;24.20;81.70
32366;DHT22;18837;46.832;16.838;2023-07-30T02:35:18;24.20;81.60
32366;DHT22;18837;46.832;16.838;2023-07-30T02:37:44;24.20;81.60
32366;DHT22;18837;46.832;16.838;2023-07-30T02:40:10;24.20;81.70
32366;DHT22;18837;46.832;16.838;2023-07-30T02:42:36;24.20;81.70
32366;DHT22;18837;46.832;16.838;2023-07-30T02:45:02;24.20;81.60
32366;DHT22;18837;46.832;16.838;2023-07-30T02:47:28;24.10;81.40
32366;DHT22;18837;46.832;16.838;2023-07-30T02:49:54;24.10;81.60
32366;DHT22;18837;46.832;16.838;2023-07-30T02:52:20;24.20;81.60
32366;DHT22;18837;46.832;16.838;2023-07-30T02:54:46;24.20;81.50
32366;DHT22;18837;46.832;16.838;2023-07-30T02:57:11;24.20;81.70
32366;DHT22;18837;46.832;16.838;2023-07-30T02:59:38;24.10;81.50
32366;DHT22;18837;46.832;16.838;2023-07-30T03:02:05;24.10;81.70
32366;DHT22;18837;46.832;16.838;2023-07-30T03:04:31;24.10;81.60
32366;DHT22;18837;46.832;16.838;2023-07-30T03:06:57;24.10;81.80
32366;DHT22;18837;46.832;16.838;2023-07-30T03:09:23;24.10;81.70
32366;DHT22;18837;46.832;16.838;2023-07-30T03:11:52;24.10;81.90
32366;DHT22;18837;46.832;16.838;2023-07-30T03:14:18;24.10;81.90
32366;DHT22;18837;46.832;16.838;2023-07-30T03:16:47;24.10;81.80
32366;DHT22;18837;46.832;16.838;2023-07-30T03:19:13;24.10;81.80
32366;DHT22;18837;46.832;16.838;2023-07-30T03:21:39;24.10;81.80
32366;DHT22;18837;46.832;16.838;2023-07-30T03:24:05;24.10;81.70
32366;DHT22;18837;46.832;16.838;2023-07-30T03:26:31;24.10;82.00
32366;DHT22;18837;46.832;16.838;2023-07-30T03:28:56;24.10;82.10
32366;DHT22;18837;46.832;16.838;2023-07-30T03:31:22;24.00;82.00
32366;DHT22;18837;46.832;16.838;2023-07-30T03:33:48;24.00;82.10
32366;DHT22;18837;46.832;16.838;2023-07-30T03:36:14;24.00;82.00
32366;DHT22;18837;46.832;16.838;2023-07-30T03:38:42;24.00;82.10
32366;DHT22;18837;46.832;16.838;2023-07-30T03:41:08;24.00;81.90
32366;DHT22;18837;46.832;16.838;2023-07-30T03:43:34;24.00;82.10
32366;DHT22;18837;46.832;16.838;2023-07-30T03:46:00;24.00;82.20
32366;DHT22;18837;46.832;16.838;2023-07-30T03:48:26;24.00;82.20
32366;DHT22;18837;46.832;16.838;2023-07-30T03:50:53;24.00;82.20
32366;DHT22;18837;46.832;16.838;2023-07-30T03:53:19;24.00;82.20
32366;DHT22;18837;46.832;16.838;2023-07-30T03:55:45;24.00;82.10
32366;DHT22;18837;46.832;16.838;2023-07-30T03:58:11;24.00;82.10
32366;DHT22;18837;46.832;16.838;2023-07-30T04:00:37;24.00;82.10
32366;DHT22;18837;46.832;16.838;2023-07-30T04:03:03;24.00;82.20
32366;DHT22;18837;46.832;16.838;2023-07-30T04:05:29;23.90;82.10
32366;DHT22;18837;46.832;16.838;2023-07-30T04:07:55;23.90;82.10
32366;DHT22;18837;46.832;16.838;2023-07-30T04:10:21;24.00;82.30
32366;DHT22;18837;46.832;16.838;2023-07-30T04:12:47;24.00;82.30
32366;DHT22;18837;46.832;16.838;2023-07-30T04:15:15;23.90;82.20
32366;DHT22;18837;46.832;16.838;2023-07-30T04:17:41;23.90;82.00
32366;DHT22;18837;46.832;16.838;2023-07-30T04:20:08;23.90;82.50
32366;DHT22;18837;46.832;16.838;2023-07-30T04:22:38;23.90;82.50
32366;DHT22;18837;46.832;16.838;2023-07-30T04:25:04;23.90;82.40
32366;DHT22;18837;46.832;16.838;2023-07-30T04:27:30;23.90;82.30
32366;DHT22;18837;46.832;16.838;2023-07-30T04:29:56;23.80;82.30
32366;DHT22;18837;46.832;16.838;2023-07-30T04:32:22;23.80;82.30
32366;DHT22;18837;46.832;16.838;2023-07-30T04:34:47;23.80;82.30
32366;DHT22;18837;46.832;16.838;2023-07-30T04:37:13;23.80;82.30
32366;DHT22;18837;46.832;16.838;2023-07-30T04:39:39;23.80;82.30
32366;DHT22;18837;46.832;16.838;2023-07-30T04:42:05;23.80;82.40
32366;DHT22;18837;46.832;16.838;2023-07-30T04:44:31;23.80;82.30
32366;DHT22;18837;46.832;16.838;2023-07-30T04:46:57;23.80;82.30
32366;DHT22;18837;46.832;16.838;2023-07-30T04:49:22;23.80;82.50
32366;DHT22;18837;46.832;16.838;2023-07-30T04:51:48;23.80;82.40
32366;DHT22;18837;46.832;16.838;2023-07-30T04:54:14;23.80;82.50
32366;DHT22;18837;46.832;16.838;2023-07-30T04:56:40;23.80;82.40
32366;DHT22;18837;46.832;16.838;2023-07-30T04:59:06;23.70;82.30
32366;DHT22;18837;46.832;16.838;2023-07-30T05:01:32;23.80;82.60
32366;DHT22;18837;46.832;16.838;2023-07-30T05:03:58;23.70;82.60
32366;DHT22;18837;46.832;16.838;2023-07-30T05:06:23;23.80;82.70
32366;DHT22;18837;46.832;16.838;2023-07-30T05:08:49;23.70;82.60
32366;DHT22;18837;46.832;16.838;2023-07-30T05:11:15;23.70;82.50
32366;DHT22;18837;46.832;16.838;2023-07-30T05:13:41;23.70;82.70
32366;DHT22;18837;46.832;16.838;2023-07-30T05:16:06;23.70;82.60
32366;DHT22;18837;46.832;16.838;2023-07-30T05:18:32;23.70;82.60
32366;DHT22;18837;46.832;16.838;2023-07-30T05:20:58;23.70;82.60
32366;DHT22;18837;46.832;16.838;2023-07-30T05:23:24;23.70;82.80
32366;DHT22;18837;46.832;16.838;2023-07-30T05:25:50;23.70;82.70
32366;DHT22;18837;46.832;16.838;2023-07-30T05:28:16;23.70;82.70
32366;DHT22;18837;46.832;16.838;2023-07-30T05:30:42;23.70;82.70
32366;DHT22;18837;46.832;16.838;2023-07-30T05:33:07;23.70;82.90
32366;DHT22;18837;46.832;16.838;2023-07-30T05:35:33;23.70;82.70
32366;DHT22;18837;46.832;16.838;2023-07-30T05:37:59;23.70;82.90
32366;DHT22;18837;46.832;16.838;2023-07-30T05:40:25;23.70;82.90
32366;DHT22;18837;46.832;16.838;2023-07-30T05:42:51;23.70;83.00
32366;DHT22;18837;46.832;16.838;2023-07-30T05:45:17;23.70;83.10
32366;DHT22;18837;46.832;16.838;2023-07-30T05:47:43;23.70;83.00
32366;DHT22;18837;46.832;16.838;2023-07-30T05:50:09;23.70;82.90
32366;DHT22;18837;46.832;16.838;2023-07-30T05:52:34;23.70;83.00
32366;DHT22;18837;46.832;16.838;2023-07-30T05:55:00;23.60;82.60
32366;DHT22;18837;46.832;16.838;2023-07-30T05:57:31;23.60;82.90
32366;DHT22;18837;46.832;16.838;2023-07-30T05:59:57;23.60;83.00
32366;DHT22;18837;46.832;16.838;2023-07-30T06:02:23;23.60;83.00
32366;DHT22;18837;46.832;16.838;2023-07-30T06:04:49;23.60;83.00
32366;DHT22;18837;46.832;16.838;2023-07-30T06:07:15;23.60;82.90
32366;DHT22;18837;46.832;16.838;2023-07-30T06:09:40;23.60;83.20
32366;DHT22;18837;46.832;16.838;2023-07-30T06:12:06;23.60;83.20
32366;DHT22;18837;46.832;16.838;2023-07-30T06:14:33;23.60;83.00
32366;DHT22;18837;46.832;16.838;2023-07-30T06:17:00;23.60;83.30
32366;DHT22;18837;46.832;16.838;2023-07-30T06:19:27;23.60;83.30
32366;DHT22;18837;46.832;16.838;2023-07-30T06:21:53;23.60;83.10
32366;DHT22;18837;46.832;16.838;2023-07-30T06:24:18;23.60;83.20
32366;DHT22;18837;46.832;16.838;2023-07-30T06:26:45;23.50;83.30
32366;DHT22;18837;46.832;16.838;2023-07-30T06:29:11;23.50;83.40
32366;DHT22;18837;46.832;16.838;2023-07-30T06:31:37;23.60;83.40
32366;DHT22;18837;46.832;16.838;2023-07-30T06:34:03;23.50;83.50
32366;DHT22;18837;46.832;16.838;2023-07-30T06:36:30;23.50;83.50
32366;DHT22;18837;46.832;16.838;2023-07-30T06:38:56;23.50;83.60
32366;DHT22;18837;46.832;16.838;2023-07-30T06:41:21;23.50;83.40
32366;DHT22;18837;46.832;16.838;2023-07-30T06:43:47;23.50;83.50
32366;DHT22;18837;46.832;16.838;2023-07-30T06:46:13;23.50;83.60
32366;DHT22;18837;46.832;16.838;2023-07-30T06:48:41;23.50;83.60
32366;DHT22;18837;46.832;16.838;2023-07-30T06:51:09;23.50;83.40
32366;DHT22;18837;46.832;16.838;2023-07-30T06:53:35;23.50;83.70
32366;DHT22;18837;46.832;16.838;2023-07-30T06:56:01;23.50;83.70
32366;DHT22;18837;46.832;16.838;2023-07-30T06:58:28;23.50;83.90
32366;DHT22;18837;46.832;16.838;2023-07-30T07:00:54;23.50;83.70
32366;DHT22;18837;46.832;16.838;2023-07-30T07:03:20;23.50;83.90
32366;DHT22;18837;46.832;16.838;2023-07-30T07:05:53;23.50;83.90
32366;DHT22;18837;46.832;16.838;2023-07-30T07:08:20;23.50;83.80
32366;DHT22;18837;46.832;16.838;2023-07-30T07:10:46;23.50;84.10
32366;DHT22;18837;46.832;16.838;2023-07-30T07:13:12;23.40;84.00
32366;DHT22;18837;46.832;16.838;2023-07-30T07:15:44;23.40;83.80
32366;DHT22;18837;46.832;16.838;2023-07-30T07:18:10;23.40;83.80
32366;DHT22;18837;46.832;16.838;2023-07-30T07:20:38;23.40;84.20
32366;DHT22;18837;46.832;16.838;2023-07-30T07:23:10;23.40;83.30
32366;DHT22;18837;46.832;16.838;2023-07-30T07:25:35;23.40;84.20
32366;DHT22;18837;46.832;16.838;2023-07-30T07:28:03;23.40;83.90
32366;DHT22;18837;46.832;16.838;2023-07-30T07:30:28;23.40;83.90
32366;DHT22;18837;46.832;16.838;2023-07-30T07:32:54;23.40;83.90
32366;DHT22;18837;46.832;16.838;2023-07-30T07:35:21;23.40;84.00
32366;DHT22;18837;46.832;16.838;2023-07-30T07:37:47;23.40;84.20
32366;DHT22;18837;46.832;16.838;2023-07-30T07:40:13;23.40;84.20
32366;DHT22;18837;46.832;16.838;2023-07-30T07:42:39;23.40;84.80
32366;DHT22;18837;46.832;16.838;2023-07-30T07:45:06;23.40;84.90
32366;DHT22;18837;46.832;16.838;2023-07-30T07:47:32;23.40;85.10
32366;DHT22;18837;46.832;16.838;2023-07-30T07:49:58;23.40;85.00
32366;DHT22;18837;46.832;16.838;2023-07-30T07:52:24;23.40;85.00
32366;DHT22;18837;46.832;16.838;2023-07-30T07:54:50;23.30;85.20
32366;DHT22;18837;46.832;16.838;2023-07-30T07:57:17;23.30;85.10
32366;DHT22;18837;46.832;16.838;2023-07-30T07:59:43;23.40;85.30
32366;DHT22;18837;46.832;16.838;2023-07-30T08:02:13;23.40;85.50
32366;DHT22;18837;46.832;16.838;2023-07-30T08:04:39;23.40;85.10
32366;DHT22;18837;46.832;16.838;2023-07-30T08:07:05;23.40;85.30
32366;DHT22;18837;46.832;16.838;2023-07-30T08:09:31;23.30;85.20
32366;DHT22;18837;46.832;16.838;2023-07-30T08:11:57;23.30;85.20
32366;DHT22;18837;46.832;16.838;2023-07-30T08:14:22;23.30;85.30
32366;DHT22;18837;46.832;16.838;2023-07-30T08:16:48;23.30;85.30
32366;DHT22;18837;46.832;16.838;2023-07-30T08:19:14;23.30;85.40
32366;DHT22;18837;46.832;16.838;2023-07-30T08:21:40;23.30;85.30
32366;DHT22;18837;46.832;16.838;2023-07-30T08:24:06;23.40;85.60
32366;DHT22;18837;46.832;16.838;2023-07-30T08:26:32;23.30;85.50
32366;DHT22;18837;46.832;16.838;2023-07-30T08:28:58;23.30;85.40
32366;DHT22;18837;46.832;16.838;2023-07-30T08:31:24;23.30;85.50
32366;DHT22;18837;46.832;16.838;2023-07-30T08:33:53;23.40;85.50
32366;DHT22;18837;46.832;16.838;2023-07-30T08:36:19;23.40;85.50
32366;DHT22;18837;46.832;16.838;2023-07-30T08:38:44;23.40;85.60
32366;DHT22;18837;46.832;16.838;2023-07-30T08:41:10;23.40;85.70
32366;DHT22;18837;46.832;16.838;2023-07-30T08:43:36;23.40;85.90
32366;DHT22;18837;46.832;16.838;2023-07-30T08:46:02;23.40;85.90
32366;DHT22;18837;46.832;16.838;2023-07-30T08:48:28;23.30;85.80
32366;DHT22;18837;46.832;16.838;2023-07-30T08:50:56;23.30;85.90
32366;DHT22;18837;46.832;16.838;2023-07-30T08:53:24;23.30;85.90
32366;DHT22;18837;46.832;16.838;2023-07-30T08:55:51;23.40;85.90
32366;DHT22;18837;46.832;16.838;2023-07-30T08:58:17;23.40;86.10
32366;DHT22;18837;46.832;16.838;2023-07-30T09:00:45;23.40;86.10
32366;DHT22;18837;46.832;16.838;2023-07-30T09:03:14;23.40;86.00
32366;DHT22;18837;46.832;16.838;2023-07-30T09:05:42;23.40;85.90
32366;DHT22;18837;46.832;16.838;2023-07-30T09:08:08;23.40;86.00
32366;DHT22;18837;46.832;16.838;2023-07-30T09:10:35;23.40;86.00
32366;DHT22;18837;46.832;16.838;2023-07-30T09:13:02;23.40;85.90
32366;DHT22;18837;46.832;16.838;2023-07-30T09:15:36;23.40;85.90
32366;DHT22;18837;46.832;16.838;2023-07-30T09:18:06;23.40;85.70
32366;DHT22;18837;46.832;16.838;2023-07-30T09:20:42;23.40;86.00
32366;DHT22;18837;46.832;16.838;2023-07-30T09:23:09;23.40;86.00
32366;DHT22;18837;46.832;16.838;2023-07-30T09:25:36;23.40;85.80
32366;DHT22;18837;46.832;16.838;2023-07-30T09:28:02;23.40;85.80
32366;DHT22;18837;46.832;16.838;2023-07-30T09:30:28;23.50;85.80
32366;DHT22;18837;46.832;16.838;2023-07-30T09:32:56;23.50;85.80
32366;DHT22;18837;46.832;16.838;2023-07-30T09:35:24;23.50;85.60
32366;DHT22;18837;46.832;16.838;2023-07-30T09:37:57;23.60;85.70
32366;DHT22;18837;46.832;16.838;2023-07-30T09:40:34;23.60;85.40
32366;DHT22;18837;46.832;16.838;2023-07-30T09:43:03;23.60;85.50
32366;DHT22;18837;46.832;16.838;2023-07-30T09:45:33;23.70;85.40
32366;DHT22;18837;46.832;16.838;2023-07-30T09:48:02;23.70;85.00
32366;DHT22;18837;46.832;16.838;2023-07-30T09:50:28;23.80;85.10
32366;DHT22;18837;46.832;16.838;2023-07-30T09:52:55;23.80;84.80
32366;DHT22;18837;46.832;16.838;2023-07-30T09:55:21;23.80;84.90
32366;DHT22;18837;46.832;16.838;2023-07-30T09:57:47;23.90;84.80
32366;DHT22;18837;46.832;16.838;2023-07-30T10:00:13;23.90;84.50
32366;DHT22;18837;46.832;16.838;2023-07-30T10:02:41;24.00;84.70
32366;DHT22;18837;46.832;16.838;2023-07-30T10:05:20;24.00;84.50
32366;DHT22;18837;46.832;16.838;2023-07-30T10:07:54;24.10;84.60
32366;DHT22;18837;46.832;16.838;2023-07-30T10:10:22;24.10;84.50
32366;DHT22;18837;46.832;16.838;2023-07-30T10:12:51;24.10;84.60
32366;DHT22;18837;46.832;16.838;2023-07-30T10:15:21;24.20;84.60
32366;DHT22;18837;46.832;16.838;2023-07-30T10:17:55;24.30;84.90
32366;DHT22;18837;46.832;16.838;2023-07-30T10:20:28;24.20;84.60
32366;DHT22;18837;46.832;16.838;2023-07-30T10:22:57;24.30;85.10
32366;DHT22;18837;46.832;16.838;2023-07-30T10:25:43;24.30;85.60
32366;DHT22;18837;46.832;16.838;2023-07-30T10:31:00;24.40;85.70
32366;DHT22;18837;46.832;16.838;2023-07-30T10:33:46;24.40;85.00
32366;DHT22;18837;46.832;16.838;2023-07-30T10:36:12;24.40;84.80
32366;DHT22;18837;46.832;16.838;2023-07-30T10:38:39;24.40;84.70
32366;DHT22;18837;46.832;16.838;2023-07-30T10:41:09;24.50;84.60
32366;DHT22;18837;46.832;16.838;2023-07-30T10:43:40;24.50;84.60
32366;DHT22;18837;46.832;16.838;2023-07-30T10:46:08;24.60;85.00
32366;DHT22;18837;46.832;16.838;2023-07-30T10:48:42;24.70;85.80
32366;DHT22;18837;46.832;16.838;2023-07-30T10:51:21;24.70;86.70
32366;DHT22;18837;46.832;16.838;2023-07-30T10:53:49;24.80;85.90
32366;DHT22;18837;46.832;16.838;2023-07-30T10:56:18;24.90;84.90
32366;DHT22;18837;46.832;16.838;2023-07-30T10:58:49;24.90;85.00
32366;DHT22;18837;46.832;16.838;2023-07-30T11:01:16;24.90;84.70
32366;DHT22;18837;46.832;16.838;2023-07-30T11:03:42;25.00;84.90
32366;DHT22;18837;46.832;16.838;2023-07-30T11:06:08;25.00;85.20
32366;DHT22;18837;46.832;16.838;2023-07-30T11:08:39;25.10;85.10
32366;DHT22;18837;46.832;16.838;2023-07-30T11:11:06;25.10;84.90
32366;DHT22;18837;46.832;16.838;2023-07-30T11:13:40;25.10;84.70
32366;DHT22;18837;46.832;16.838;2023-07-30T11:16:10;25.10;84.90
32366;DHT22;18837;46.832;16.838;2023-07-30T11:18:37;25.10;84.30
32366;DHT22;18837;46.832;16.838;2023-07-30T11:23:34;25.20;86.20
32366;DHT22;18837;46.832;16.838;2023-07-30T11:26:01;25.30;88.00
32366;DHT22;18837;46.832;16.838;2023-07-30T11:28:38;25.30;88.30
32366;DHT22;18837;46.832;16.838;2023-07-30T11:31:12;25.40;87.70
32366;DHT22;18837;46.832;16.838;2023-07-30T11:33:40;25.40;85.70
32366;DHT22;18837;46.832;16.838;2023-07-30T11:36:26;25.40;84.50
32366;DHT22;18837;46.832;16.838;2023-07-30T11:38:53;25.40;84.00
32366;DHT22;18837;46.832;16.838;2023-07-30T11:41:19;25.40;83.40
32366;DHT22;18837;46.832;16.838;2023-07-30T11:43:47;25.40;83.20
32366;DHT22;18837;46.832;16.838;2023-07-30T11:46:15;25.40;83.20
32366;DHT22;18837;46.832;16.838;2023-07-30T11:48:44;25.40;86.20
32366;DHT22;18837;46.832;16.838;2023-07-30T11:51:27;25.50;86.90
32366;DHT22;18837;46.832;16.838;2023-07-30T11:53:58;25.60;87.50
32366;DHT22;18837;46.832;16.838;2023-07-30T11:56:30;25.60;88.90
32366;DHT22;18837;46.832;16.838;2023-07-30T11:59:05;25.70;89.10
32366;DHT22;18837;46.832;16.838;2023-07-30T12:01:56;25.70;88.00
32366;DHT22;18837;46.832;16.838;2023-07-30T12:04:22;25.80;87.10
32366;DHT22;18837;46.832;16.838;2023-07-30T12:06:51;25.80;86.30
32366;DHT22;18837;46.832;16.838;2023-07-30T12:09:23;25.80;85.70
32366;DHT22;18837;46.832;16.838;2023-07-30T12:14:23;25.90;87.30
32366;DHT22;18837;46.832;16.838;2023-07-30T12:16:55;26.00;84.20
32366;DHT22;18837;46.832;16.838;2023-07-30T12:19:21;26.00;83.50
32366;DHT22;18837;46.832;16.838;2023-07-30T12:21:47;26.10;87.10
32366;DHT22;18837;46.832;16.838;2023-07-30T12:24:13;26.10;89.70
32366;DHT22;18837;46.832;16.838;2023-07-30T12:26:39;26.20;88.40
32366;DHT22;18837;46.832;16.838;2023-07-30T12:29:04;26.20;87.30
32366;DHT22;18837;46.832;16.838;2023-07-30T12:31:30;26.20;84.00
32366;DHT22;18837;46.832;16.838;2023-07-30T12:33:56;26.20;82.90
32366;DHT22;18837;46.832;16.838;2023-07-30T12:36:23;26.20;84.40
32366;DHT22;18837;46.832;16.838;2023-07-30T12:38:49;26.30;84.00
32366;DHT22;18837;46.832;16.838;2023-07-30T12:41:17;26.30;85.50
32366;DHT22;18837;46.832;16.838;2023-07-30T12:43:44;26.30;84.70
32366;DHT22;18837;46.832;16.838;2023-07-30T12:46:10;26.40;85.00
32366;DHT22;18837;46.832;16.838;2023-07-30T12:48:36;26.40;85.00
32366;DHT22;18837;46.832;16.838;2023-07-30T12:51:02;26.50;85.30
32366;DHT22;18837;46.832;16.838;2023-07-30T12:53:28;26.50;86.50
32366;DHT22;18837;46.832;16.838;2023-07-30T12:55:53;26.50;86.40
32366;DHT22;18837;46.832;16.838;2023-07-30T12:58:19;26.50;83.40
32366;DHT22;18837;46.832;16.838;2023-07-30T13:00:45;26.50;82.30
32366;DHT22;18837;46.832;16.838;2023-07-30T13:03:11;26.50;85.60
32366;DHT22;18837;46.832;16.838;2023-07-30T13:05:37;26.50;86.20
32366;DHT22;18837;46.832;16.838;2023-07-30T13:08:02;26.50;84.70
32366;DHT22;18837;46.832;16.838;2023-07-30T13:10:30;26.50;84.50
32366;DHT22;18837;46.832;16.838;2023-07-30T13:12:56;26.50;84.80
32366;DHT22;18837;46.832;16.838;2023-07-30T13:15:21;26.50;85.60
32366;DHT22;18837;46.832;16.838;2023-07-30T13:17:47;26.50;86.60
32366;DHT22;18837;46.832;16.838;2023-07-30T13:20:13;26.60;87.60
32366;DHT22;18837;46.832;16.838;2023-07-30T13:22:39;26.60;86.40
32366;DHT22;18837;46.832;16.838;2023-07-30T13:25:05;26.60;87.10
32366;DHT22;18837;46.832;16.838;2023-07-30T13:27:31;26.70;86.90
32366;DHT22;18837;46.832;16.838;2023-07-30T13:29:57;26.80;87.80
32366;DHT22;18837;46.832;16.838;2023-07-30T13:32:23;26.80;87.80
32366;DHT22;18837;46.832;16.838;2023-07-30T13:34:51;26.80;87.00
32366;DHT22;18837;46.832;16.838;2023-07-30T13:37:17;26.90;84.00
32366;DHT22;18837;46.832;16.838;2023-07-30T13:39:46;26.90;81.80
32366;DHT22;18837;46.832;16.838;2023-07-30T13:42:12;26.90;81.90
32366;DHT22;18837;46.832;16.838;2023-07-30T13:44:39;27.00;81.70
32366;DHT22;18837;46.832;16.838;2023-07-30T13:47:05;27.00;82.40
32366;DHT22;18837;46.832;16.838;2023-07-30T13:49:31;27.10;83.60
32366;DHT22;18837;46.832;16.838;2023-07-30T13:51:57;27.10;86.80
32366;DHT22;18837;46.832;16.838;2023-07-30T13:54:23;27.20;86.50
32366;DHT22;18837;46.832;16.838;2023-07-30T13:56:48;27.20;83.80
32366;DHT22;18837;46.832;16.838;2023-07-30T13:59:14;27.30;83.80
32366;DHT22;18837;46.832;16.838;2023-07-30T14:01:40;27.30;83.30
32366;DHT22;18837;46.832;16.838;2023-07-30T14:04:06;27.30;84.90
32366;DHT22;18837;46.832;16.838;2023-07-30T14:06:32;27.40;83.40
32366;DHT22;18837;46.832;16.838;2023-07-30T14:08:58;27.50;84.30
32366;DHT22;18837;46.832;16.838;2023-07-30T14:11:27;27.50;82.20
32366;DHT22;18837;46.832;16.838;2023-07-30T14:13:53;27.50;82.30
32366;DHT22;18837;46.832;16.838;2023-07-30T14:16:19;27.50;83.50
32366;DHT22;18837;46.832;16.838;2023-07-30T14:18:45;27.60;84.30
32366;DHT22;18837;46.832;16.838;2023-07-30T14:21:10;27.60;82.70
32366;DHT22;18837;46.832;16.838;2023-07-30T14:23:38;27.60;83.30
32366;DHT22;18837;46.832;16.838;2023-07-30T14:26:04;27.70;82.50
32366;DHT22;18837;46.832;16.838;2023-07-30T14:28:29;27.70;83.20
32366;DHT22;18837;46.832;16.838;2023-07-30T14:30:55;27.70;81.90
32366;DHT22;18837;46.832;16.838;2023-07-30T14:33:21;27.80;80.10
32366;DHT22;18837;46.832;16.838;2023-07-30T14:35:48;27.80;82.20
32366;DHT22;18837;46.832;16.838;2023-07-30T14:38:13;27.80;79.70
32366;DHT22;18837;46.832;16.838;2023-07-30T14:40:39;27.90;81.60
32366;DHT22;18837;46.832;16.838;2023-07-30T14:43:05;27.80;82.70
32366;DHT22;18837;46.832;16.838;2023-07-30T14:45:31;27.90;82.80
32366;DHT22;18837;46.832;16.838;2023-07-30T14:47:57;27.90;80.80
32366;DHT22;18837;46.832;16.838;2023-07-30T14:50:23;27.90;81.80
32366;DHT22;18837;46.832;16.838;2023-07-30T14:52:48;28.00;83.00
32366;DHT22;18837;46.832;16.838;2023-07-30T14:55:14;28.00;82.90
32366;DHT22;18837;46.832;16.838;2023-07-30T14:57:41;28.00;81.30
32366;DHT22;18837;46.832;16.838;2023-07-30T15:00:07;28.00;81.10
32366;DHT22;18837;46.832;16.838;2023-07-30T15:02:37;28.00;79.70
32366;DHT22;18837;46.832;16.838;2023-07-30T15:05:03;28.00;78.30
32366;DHT22;18837;46.832;16.838;2023-07-30T15:07:29;28.10;80.00
32366;DHT22;18837;46.832;16.838;2023-07-30T15:09:59;28.10;80.10
32366;DHT22;18837;46.832;16.838;2023-07-30T15:12:24;28.10;81.20
32366;DHT22;18837;46.832;16.838;2023-07-30T15:14:50;28.10;80.40
32366;DHT22;18837;46.832;16.838;2023-07-30T15:17:16;28.10;79.50
32366;DHT22;18837;46.832;16.838;2023-07-30T15:19:41;28.10;79.30
32366;DHT22;18837;46.832;16.838;2023-07-30T15:22:07;28.10;80.70